Time;durP1;ratioP1;P1;durP2;ratioP2;P2;SDS_P1;SDS_P2;PMS_P1;PMS_P2;Temp;Humidity;BMP_temperature;BMP_pressure;BME280_temperature;BME280_humidity;BME280_pressure;Samples;Min_cycle;Max_cycle;Signal;HPM_P1;HPM_P2
2021/05/13 00:00:43;;;;;;;3.60;2.70;;;22.80;38.70;;;;;;5013068;28;20438;-58
2021/05/13 00:03:09;;;;;;;4.78;3.15;;;22.70;38.60;;;;;;5010636;28;20010;-53
2021/05/13 00:05:35;;;;;;;3.38;2.80;;;22.70;38.70;;;;;;5014725;28;20121;-51
2021/05/13 00:08:00;;;;;;;4.13;2.83;;;22.70;38.70;;;;;;5014542;28;20026;-56
2021/05/13 00:10:28;;;;;;;3.47;2.63;;;22.70;38.70;;;;;;5013095;28;20120;-53
2021/05/13 00:12:59;;;;;;;4.47;2.75;;;22.70;38.70;;;;;;5013773;28;20025;-52
2021/05/13 00:15:28;;;;;;;3.33;2.50;;;22.70;38.70;;;;;;5013518;28;20093;-60
2021/05/13 00:17:56;;;;;;;3.60;2.33;;;22.70;38.70;;;;;;5013060;28;20511;-51
2021/05/13 00:20:25;;;;;;;3.88;2.75;;;22.70;38.70;;;;;;5011576;28;20426;-57
2021/05/13 00:22:51;;;;;;;3.20;2.35;;;22.70;38.70;;;;;;5014183;28;20417;-55
2021/05/13 00:25:18;;;;;;;3.15;2.25;;;22.70;38.70;;;;;;5013711;28;20101;-56
2021/05/13 00:27:44;;;;;;;4.25;2.60;;;22.70;38.70;;;;;;5013081;28;20458;-50
2021/05/13 00:30:10;;;;;;;3.17;2.28;;;22.70;38.70;;;;;;5012403;28;20045;-54
2021/05/13 00:32:37;;;;;;;3.13;2.30;;;22.60;38.70;;;;;;5013906;28;20029;-52
2021/05/13 00:35:21;;;;;;;3.05;2.30;;;22.70;38.70;;;;;;5013484;28;20022;-51
2021/05/13 00:37:47;;;;;;;2.25;1.95;;;22.60;38.70;;;;;;5013435;28;20046;-56
2021/05/13 00:40:15;;;;;;;4.68;2.38;;;22.60;38.70;;;;;;5013298;28;20029;-53
2021/05/13 00:42:41;;;;;;;2.78;2.00;;;22.60;38.70;;;;;;5011232;28;20033;-54
2021/05/13 00:45:09;;;;;;;2.83;1.88;;;22.60;39.30;;;;;;5013341;28;20061;-54
2021/05/13 00:47:38;;;;;;;3.78;2.30;;;22.60;38.70;;;;;;5012757;28;20030;-51
2021/05/13 00:50:05;;;;;;;2.65;1.80;;;22.60;38.70;;;;;;5012533;28;20341;-53
2021/05/13 00:52:33;;;;;;;3.80;2.10;;;22.60;39.40;;;;;;5013281;28;20030;-53
2021/05/13 00:54:59;;;;;;;3.28;1.98;;;22.60;38.80;;;;;;5013387;28;20399;-53
2021/05/13 00:57:26;;;;;;;4.18;1.75;;;22.60;38.80;;;;;;5012749;28;20062;-54
2021/05/13 00:59:56;;;;;;;2.58;1.75;;;22.60;38.80;;;;;;5005749;28;20124;-56
2021/05/13 01:02:22;;;;;;;2.67;1.52;;;22.50;38.70;;;;;;5012860;28;20030;-54
2021/05/13 01:04:48;;;;;;;2.35;1.52;;;22.50;38.80;;;;;;5013129;28;20045;-53
2021/05/13 01:07:14;;;;;;;2.50;1.60;;;22.50;38.80;;;;;;5013216;28;20355;-59
2021/05/13 01:09:39;;;;;;;2.00;1.65;;;22.50;38.80;;;;;;5012704;28;20025;-55
2021/05/13 01:12:15;;;;;;;2.10;1.45;;;22.50;38.80;;;;;;5011253;28;20330;-50
2021/05/13 01:14:43;;;;;;;1.95;1.58;;;22.50;38.80;;;;;;5010009;28;20029;-55
2021/05/13 01:19:44;;;;;;;2.05;1.42;;;22.50;38.80;;;;;;5012920;28;20113;-56
2021/05/13 01:22:11;;;;;;;2.58;1.55;;;22.50;38.90;;;;;;5013316;28;20417;-56
2021/05/13 01:24:37;;;;;;;2.92;1.58;;;22.50;38.90;;;;;;5013001;28;20025;-55
2021/05/13 01:27:03;;;;;;;3.92;1.80;;;22.50;38.90;;;;;;5012265;28;20503;-55
2021/05/13 01:29:29;;;;;;;2.03;1.30;;;22.50;38.90;;;;;;5012291;28;20111;-53
2021/05/13 01:31:56;;;;;;;2.17;1.38;;;22.40;38.90;;;;;;5012590;28;20085;-51
2021/05/13 01:34:22;;;;;;;1.92;1.40;;;22.40;38.90;;;;;;5012969;28;20049;-53
2021/05/13 01:36:49;;;;;;;1.98;1.33;;;22.40;38.90;;;;;;5013060;28;20117;-56
2021/05/13 01:39:16;;;;;;;2.78;1.63;;;22.40;38.90;;;;;;5012309;28;20057;-55
2021/05/13 01:41:42;;;;;;;2.08;1.40;;;22.50;39.00;;;;;;5012591;28;20026;-55
2021/05/13 01:44:09;;;;;;;2.05;1.52;;;22.40;38.90;;;;;;5012511;28;20441;-56
2021/05/13 01:46:36;;;;;;;2.00;1.50;;;22.40;39.00;;;;;;5013192;28;20092;-58
2021/05/13 01:49:03;;;;;;;2.25;1.40;;;22.40;39.00;;;;;;5010809;28;20426;-53
2021/05/13 01:51:29;;;;;;;2.40;1.58;;;22.40;39.00;;;;;;5012507;28;20037;-55
2021/05/13 01:53:55;;;;;;;1.92;1.40;;;22.40;39.00;;;;;;5011719;28;20064;-52
2021/05/13 01:56:21;;;;;;;2.05;1.25;;;22.40;39.00;;;;;;5012614;28;20369;-53
2021/05/13 01:58:47;;;;;;;2.15;1.38;;;22.40;39.00;;;;;;5011532;28;20029;-53
2021/05/13 02:01:15;;;;;;;1.67;0.90;;;22.40;39.00;;;;;;5012689;28;20037;-56
2021/05/13 02:03:43;;;;;;;3.25;1.58;;;22.30;39.00;;;;;;5011895;28;20038;-51
2021/05/13 02:06:10;;;;;;;1.65;1.20;;;22.40;39.10;;;;;;5003898;28;20473;-52
2021/05/13 02:08:36;;;;;;;2.25;1.27;;;22.30;39.00;;;;;;5012311;28;20381;-51
2021/05/13 02:11:02;;;;;;;1.80;1.27;;;22.30;39.00;;;;;;5011830;28;20038;-56
2021/05/13 02:13:28;;;;;;;2.03;1.30;;;22.30;39.00;;;;;;5010885;28;20022;-51
2021/05/13 02:15:53;;;;;;;2.00;1.20;;;22.30;39.10;;;;;;5011668;28;20465;-52
2021/05/13 02:18:20;;;;;;;2.28;1.10;;;22.30;39.10;;;;;;5011899;28;20072;-58
2021/05/13 02:20:47;;;;;;;1.83;1.23;;;22.30;39.10;;;;;;5012506;28;20040;-55
2021/05/13 02:23:13;;;;;;;1.50;1.10;;;22.30;39.10;;;;;;5012706;28;20426;-54
2021/05/13 02:25:39;;;;;;;1.38;1.00;;;22.30;39.10;;;;;;5011404;28;20069;-50
2021/05/13 02:28:05;;;;;;;2.42;1.65;;;22.30;39.10;;;;;;5011986;28;20473;-51
2021/05/13 02:30:31;;;;;;;1.90;0.95;;;22.30;39.20;;;;;;5010865;28;20030;-56
2021/05/13 02:32:57;;;;;;;1.98;1.30;;;22.30;39.20;;;;;;5011763;28;20037;-53
2021/05/13 02:35:23;;;;;;;2.00;1.10;;;22.30;39.20;;;;;;5011416;28;20151;-50
2021/05/13 02:37:49;;;;;;;2.17;1.13;;;22.30;39.30;;;;;;5013455;28;20369;-50
2021/05/13 02:40:16;;;;;;;2.30;1.15;;;22.30;39.30;;;;;;5013038;28;20030;-53
2021/05/13 02:42:43;;;;;;;1.42;1.13;;;22.20;39.20;;;;;;5012929;28;20025;-49
2021/05/13 02:45:10;;;;;;;1.80;1.10;;;22.20;39.20;;;;;;5009915;28;20026;-57
2021/05/13 02:47:36;;;;;;;2.17;1.15;;;22.20;39.30;;;;;;5011820;28;20037;-50
2021/05/13 02:50:06;;;;;;;1.48;1.00;;;22.20;39.30;;;;;;5011927;28;20357;-47
2021/05/13 02:52:32;;;;;;;2.08;1.17;;;22.20;39.30;;;;;;5011586;28;20029;-56
2021/05/13 02:54:58;;;;;;;1.85;0.90;;;22.20;39.30;;;;;;5009703;28;20030;-52
2021/05/13 02:57:24;;;;;;;2.30;1.48;;;22.20;39.30;;;;;;5012406;28;20112;-53
2021/05/13 02:59:55;;;;;;;1.23;0.80;;;22.20;39.30;;;;;;5009203;28;20041;-50
2021/05/13 03:02:20;;;;;;;2.20;1.23;;;22.20;39.30;;;;;;5011083;28;20076;-52
2021/05/13 03:04:46;;;;;;;1.42;1.02;;;22.20;39.40;;;;;;5009371;28;20026;-51
2021/05/13 03:07:12;;;;;;;1.67;1.13;;;22.20;39.40;;;;;;5014851;28;20125;-57
2021/05/13 03:09:43;;;;;;;1.38;0.77;;;22.20;39.40;;;;;;5014200;28;20042;-48
2021/05/13 03:12:09;;;;;;;1.27;0.70;;;22.20;39.40;;;;;;5014517;28;20084;-57
2021/05/13 03:14:36;;;;;;;0.98;0.82;;;22.20;39.40;;;;;;5013444;28;20398;-51
2021/05/13 03:17:03;;;;;;;1.23;0.80;;;22.20;39.40;;;;;;5013395;28;20339;-49
2021/05/13 03:19:39;;;;;;;1.38;0.80;;;22.20;39.40;;;;;;5014402;28;20034;-55
2021/05/13 03:22:09;;;;;;;1.65;0.80;;;22.10;39.50;;;;;;5012042;28;20057;-52
2021/05/13 03:25:25;;;;;;;1.65;0.90;;;22.10;39.40;;;;;;5013779;28;20112;-52
2021/05/13 03:27:39;;;;;;;1.35;0.90;;;22.10;39.50;;;;;;5003277;28;20042;-54
2021/05/13 03:30:05;;;;;;;1.60;0.80;;;22.10;39.50;;;;;;5012781;28;20022;-55
2021/05/13 03:32:31;;;;;;;2.00;1.20;;;22.10;39.50;;;;;;5013299;28;20100;-54
2021/05/13 03:34:57;;;;;;;1.50;0.90;;;22.10;39.60;;;;;;5011647;28;20026;-53
2021/05/13 03:37:27;;;;;;;1.40;0.63;;;22.10;39.60;;;;;;5014711;28;20026;-54
2021/05/13 03:39:54;;;;;;;1.73;0.95;;;22.10;39.60;;;;;;5013124;28;20033;-51
2021/05/13 03:42:19;;;;;;;1.00;0.75;;;22.10;39.60;;;;;;5013077;28;20353;-49
2021/05/13 03:44:45;;;;;;;1.80;1.00;;;22.10;39.70;;;;;;5013085;28;20022;-58
2021/05/13 03:47:11;;;;;;;2.63;1.20;;;22.10;39.70;;;;;;5013832;28;20121;-56
2021/05/13 03:49:37;;;;;;;2.00;0.98;;;22.10;39.70;;;;;;5013374;28;20026;-57
2021/05/13 03:52:03;;;;;;;2.83;1.00;;;22.10;39.70;;;;;;5013159;28;20476;-49
2021/05/13 03:54:28;;;;;;;0.98;0.75;;;22.10;39.70;;;;;;5013349;28;20029;-54
2021/05/13 03:56:54;;;;;;;1.42;0.90;;;22.10;39.70;;;;;;5011409;28;20476;-54
2021/05/13 03:59:20;;;;;;;2.08;0.95;;;22.10;39.70;;;;;;5012890;28;20045;-52
2021/05/13 04:01:51;;;;;;;1.33;0.80;;;22.10;39.80;;;;;;5013078;28;20053;-57
2021/05/13 04:04:16;;;;;;;1.65;0.93;;;22.10;39.80;;;;;;5013807;28;20025;-55
2021/05/13 04:06:42;;;;;;;1.60;0.80;;;22.00;39.70;;;;;;5013163;28;20076;-56
2021/05/13 04:09:09;;;;;;;0.80;0.65;;;22.00;39.80;;;;;;5012217;28;20042;-56
2021/05/13 04:11:39;;;;;;;1.50;0.70;;;22.00;39.80;;;;;;5009948;28;20054;-52
2021/05/13 04:14:08;;;;;;;1.40;0.82;;;22.00;39.80;;;;;;5013291;28;20354;-55
2021/05/13 04:16:37;;;;;;;1.10;0.70;;;22.00;39.80;;;;;;5011882;28;20500;-52
2021/05/13 04:19:03;;;;;;;1.20;0.77;;;22.00;39.80;;;;;;5010606;28;20350;-50
2021/05/13 04:21:29;;;;;;;1.38;0.73;;;22.00;39.80;;;;;;5013118;28;20022;-51
2021/05/13 04:23:56;;;;;;;1.50;0.88;;;22.00;39.80;;;;;;5012537;28;20036;-55
2021/05/13 04:26:22;;;;;;;1.23;0.73;;;22.00;39.90;;;;;;5012730;28;20092;-53
2021/05/13 04:28:48;;;;;;;0.80;0.60;;;22.00;40.00;;;;;;5012227;28;20033;-54
2021/05/13 04:31:14;;;;;;;1.92;0.93;;;22.00;40.00;;;;;;5009957;28;20362;-50
2021/05/13 04:33:40;;;;;;;1.45;0.80;;;22.00;40.00;;;;;;5012716;28;20454;-52
2021/05/13 04:36:06;;;;;;;1.25;0.82;;;22.00;40.10;;;;;;5010795;28;20052;-53
2021/05/13 04:38:32;;;;;;;0.70;0.60;;;22.00;40.10;;;;;;5010916;28;20433;-54
2021/05/13 04:40:58;;;;;;;1.08;0.77;;;22.00;40.10;;;;;;5011426;28;20061;-59
2021/05/13 04:43:30;;;;;;;1.33;0.80;;;22.00;40.20;;;;;;5011734;28;20022;-51
2021/05/13 04:45:56;;;;;;;1.02;0.70;;;22.00;40.20;;;;;;5012228;28;20735;-54
2021/05/13 04:48:25;;;;;;;1.15;0.70;;;22.00;40.20;;;;;;5012739;28;20449;-53
2021/05/13 04:50:51;;;;;;;1.52;0.82;;;22.00;40.20;;;;;;5012041;28;20040;-52
2021/05/13 04:53:17;;;;;;;1.00;0.60;;;22.00;40.20;;;;;;5012044;28;20022;-55
2021/05/13 04:55:43;;;;;;;1.73;0.90;;;22.00;40.30;;;;;;5011726;28;20034;-56
2021/05/13 04:58:08;;;;;;;0.90;0.55;;;22.00;40.30;;;;;;5011886;28;20034;-50
2021/05/13 05:00:35;;;;;;;1.45;0.88;;;22.00;40.30;;;;;;5012071;28;20030;-50
2021/05/13 05:03:02;;;;;;;1.33;0.70;;;22.00;40.30;;;;;;5012462;28;20030;-54
2021/05/13 05:05:29;;;;;;;1.10;0.80;;;22.00;40.40;;;;;;5009762;28;20049;-53
2021/05/13 05:07:55;;;;;;;1.15;0.75;;;22.00;40.40;;;;;;5011135;28;20029;-54
2021/05/13 05:10:21;;;;;;;1.83;0.90;;;22.00;40.40;;;;;;5011560;28;20072;-57
2021/05/13 05:12:47;;;;;;;1.45;0.80;;;22.00;40.40;;;;;;5012373;28;21256;-50
2021/05/13 05:15:13;;;;;;;1.38;0.90;;;22.00;40.60;;;;;;5012444;28;20044;-55
2021/05/13 05:17:39;;;;;;;0.90;0.65;;;22.00;40.50;;;;;;5011177;28;20060;-50
2021/05/13 05:20:06;;;;;;;0.75;0.65;;;22.00;40.60;;;;;;5010974;28;20365;-49
2021/05/13 05:22:32;;;;;;;1.63;0.90;;;22.00;40.60;;;;;;5011412;28;20104;-54
2021/05/13 05:24:58;;;;;;;1.48;0.90;;;22.10;40.70;;;;;;5012016;28;20048;-52
2021/05/13 05:27:24;;;;;;;1.27;0.90;;;22.00;40.70;;;;;;5011148;28;20350;-54
2021/05/13 05:29:50;;;;;;;1.65;0.90;;;22.00;40.70;;;;;;5009854;28;20037;-53
2021/05/13 05:32:15;;;;;;;1.08;0.63;;;22.10;40.80;;;;;;5012093;28;20034;-53
2021/05/13 05:34:41;;;;;;;1.02;0.70;;;22.10;40.90;;;;;;5010497;28;20500;-51
2021/05/13 05:37:07;;;;;;;1.60;0.90;;;22.10;40.90;;;;;;5012107;28;20124;-50
2021/05/13 05:39:33;;;;;;;1.27;0.70;;;22.10;40.90;;;;;;5010669;28;20026;-50
2021/05/13 05:41:59;;;;;;;2.15;0.98;;;22.00;40.90;;;;;;5010779;28;20164;-54
2021/05/13 05:44:24;;;;;;;1.35;0.70;;;22.10;41.00;;;;;;5010325;28;20453;-49
2021/05/13 05:46:51;;;;;;;1.05;0.68;;;22.10;41.00;;;;;;5011358;28;20030;-55
2021/05/13 05:49:17;;;;;;;2.10;1.08;;;22.10;41.00;;;;;;5010711;28;20160;-54
2021/05/13 05:51:43;;;;;;;0.90;0.60;;;22.10;41.10;;;;;;5011346;28;20044;-53
2021/05/13 05:54:09;;;;;;;1.13;0.80;;;22.10;41.10;;;;;;5009848;28;20034;-58
2021/05/13 05:56:34;;;;;;;0.80;0.65;;;22.10;41.10;;;;;;5008813;28;20480;-54
2021/05/13 05:59:01;;;;;;;1.30;0.77;;;22.10;41.20;;;;;;5010169;28;20040;-48
2021/05/13 06:01:27;;;;;;;1.83;1.00;;;22.10;41.20;;;;;;5010482;28;20036;-56
2021/05/13 06:03:53;;;;;;;1.60;0.93;;;22.10;41.20;;;;;;5011139;28;20029;-53
2021/05/13 06:06:19;;;;;;;1.33;0.80;;;22.10;41.30;;;;;;5010871;28;20052;-51
2021/05/13 06:08:45;;;;;;;1.77;1.05;;;22.10;41.30;;;;;;5010236;28;20033;-52
2021/05/13 06:11:12;;;;;;;1.50;0.80;;;22.10;41.40;;;;;;5009933;28;20049;-50
2021/05/13 06:13:38;;;;;;;2.05;0.90;;;22.10;41.40;;;;;;5011084;28;20047;-48
2021/05/13 06:16:04;;;;;;;1.48;0.98;;;22.10;41.40;;;;;;5010390;28;20076;-46
2021/05/13 06:18:30;;;;;;;2.13;0.90;;;22.10;41.50;;;;;;5011102;28;20026;-50
2021/05/13 06:20:55;;;;;;;1.05;0.70;;;22.10;41.50;;;;;;5010439;28;20040;-53
2021/05/13 06:23:21;;;;;;;2.25;1.00;;;22.10;41.50;;;;;;5011106;28;20046;-53
2021/05/13 06:25:47;;;;;;;1.33;0.82;;;22.10;41.60;;;;;;5010379;28;20030;-53
2021/05/13 06:28:13;;;;;;;1.40;1.00;;;22.10;41.60;;;;;;5009822;28;20025;-50
2021/05/13 06:30:39;;;;;;;1.60;0.90;;;22.20;41.70;;;;;;5010933;28;20094;-54
2021/05/13 06:33:05;;;;;;;1.35;1.00;;;22.10;41.70;;;;;;4992249;28;20077;-55
2021/05/13 06:35:37;;;;;;;1.10;0.85;;;22.20;42.40;;;;;;5011886;28;20062;-58
2021/05/13 06:38:03;;;;;;;1.27;1.02;;;22.20;41.80;;;;;;5010779;28;20445;-48
2021/05/13 06:40:29;;;;;;;1.65;0.93;;;22.10;41.70;;;;;;5011014;28;20026;-56
2021/05/13 06:42:54;;;;;;;2.15;1.08;;;22.20;41.80;;;;;;5012949;28;20084;-53
2021/05/13 06:45:20;;;;;;;1.58;0.90;;;22.20;41.80;;;;;;4997139;28;20044;-53
2021/05/13 06:47:46;;;;;;;1.42;0.93;;;22.20;41.70;;;;;;5015953;28;20022;-58
2021/05/13 06:50:13;;;;;;;1.98;1.00;;;22.20;41.80;;;;;;5015961;28;20030;-51
2021/05/13 06:52:39;;;;;;;2.35;1.20;;;22.20;41.80;;;;;;5015728;28;20083;-48
2021/05/13 06:55:06;;;;;;;1.40;0.90;;;22.20;41.80;;;;;;5014558;28;20068;-55
2021/05/13 06:57:33;;;;;;;1.30;1.05;;;22.20;41.80;;;;;;5014438;28;20060;-56
2021/05/13 06:59:59;;;;;;;1.10;0.80;;;22.20;41.80;;;;;;5013182;28;20042;-53
2021/05/13 07:02:26;;;;;;;1.38;0.85;;;22.20;41.80;;;;;;5012031;28;20068;-54
2021/05/13 07:04:54;;;;;;;1.60;0.93;;;22.20;41.90;;;;;;5013738;28;20025;-50
2021/05/13 07:07:20;;;;;;;2.13;0.90;;;22.20;41.90;;;;;;5014852;28;20396;-50
2021/05/13 07:09:46;;;;;;;1.27;1.05;;;22.30;41.90;;;;;;5013650;28;20464;-52
2021/05/13 07:12:13;;;;;;;1.20;0.95;;;22.20;41.90;;;;;;5013130;28;20046;-51
2021/05/13 07:14:39;;;;;;;2.40;1.08;;;22.20;41.90;;;;;;5012649;28;20034;-54
2021/05/13 07:17:04;;;;;;;2.00;1.02;;;22.20;41.90;;;;;;5013587;28;20556;-60
2021/05/13 07:19:30;;;;;;;1.23;0.77;;;22.30;42.00;;;;;;5009274;28;20046;-55
2021/05/13 07:21:56;;;;;;;1.27;1.02;;;22.30;42.00;;;;;;5009564;28;20117;-52
2021/05/13 07:24:29;;;;;;;2.58;1.10;;;22.30;42.00;;;;;;5011826;28;20087;-48
2021/05/13 07:26:55;;;;;;;3.38;1.40;;;22.30;42.00;;;;;;5013547;28;20022;-46
2021/05/13 07:29:20;;;;;;;2.65;1.63;;;22.30;42.10;;;;;;5013244;28;20030;-53
2021/05/13 07:31:46;;;;;;;1.90;1.40;;;22.30;42.10;;;;;;5013995;28;20459;-56
2021/05/13 07:34:12;;;;;;;1.50;1.40;;;22.30;42.10;;;;;;5014456;28;20358;-54
2021/05/13 07:36:38;;;;;;;1.92;1.40;;;22.30;42.20;;;;;;5015219;28;20053;-53
2021/05/13 07:39:05;;;;;;;2.60;1.60;;;22.30;42.20;;;;;;5015101;28;20030;-50
2021/05/13 07:41:31;;;;;;;1.80;1.38;;;22.30;42.20;;;;;;5014837;28;20442;-51
2021/05/13 07:43:57;;;;;;;2.08;1.60;;;22.30;42.30;;;;;;5015097;28;20030;-54
2021/05/13 07:46:26;;;;;;;2.10;1.55;;;22.30;42.30;;;;;;5015003;28;20026;-55
2021/05/13 07:48:52;;;;;;;3.45;1.80;;;22.40;42.30;;;;;;5014452;28;20034;-57
2021/05/13 07:51:19;;;;;;;1.80;1.50;;;22.40;42.20;;;;;;5014547;28;20145;-55
2021/05/13 07:53:45;;;;;;;2.60;1.30;;;22.40;42.20;;;;;;5011600;28;20044;-58
2021/05/13 07:56:11;;;;;;;2.13;1.25;;;22.40;42.20;;;;;;5012177;28;20046;-54
2021/05/13 07:58:37;;;;;;;1.60;1.13;;;22.40;42.20;;;;;;5013890;28;20162;-59
2021/05/13 08:01:03;;;;;;;2.42;1.30;;;22.40;42.20;;;;;;5013279;28;20026;-55
2021/05/13 08:03:29;;;;;;;2.72;1.65;;;22.40;42.10;;;;;;5012679;28;20377;-58
2021/05/13 08:05:54;;;;;;;2.38;1.60;;;22.40;42.70;;;;;;5013314;28;20018;-56
2021/05/13 08:08:20;;;;;;;2.08;1.42;;;22.40;42.10;;;;;;5012322;28;20135;-55
2021/05/13 08:10:46;;;;;;;3.22;1.50;;;22.40;42.00;;;;;;5012460;28;20062;-59
2021/05/13 08:13:15;;;;;;;2.20;1.85;;;22.40;42.00;;;;;;5012483;28;20048;-57
2021/05/13 08:15:41;;;;;;;3.03;1.60;;;22.40;42.00;;;;;;5007598;28;20033;-56
2021/05/13 08:18:06;;;;;;;2.28;1.67;;;22.40;41.90;;;;;;5010441;28;20365;-52
2021/05/13 08:20:32;;;;;;;2.95;1.45;;;22.40;41.90;;;;;;5008199;28;20108;-56
2021/05/13 08:22:58;;;;;;;2.20;1.52;;;22.40;41.80;;;;;;5010594;28;20449;-53
2021/05/13 08:25:24;;;;;;;3.42;2.25;;;22.40;41.80;;;;;;5012410;28;20029;-54
2021/05/13 08:27:50;;;;;;;2.55;1.88;;;22.40;41.80;;;;;;5013338;28;20022;-59
2021/05/13 08:30:17;;;;;;;1.75;1.38;;;22.40;41.80;;;;;;5011371;28;20034;-54
2021/05/13 08:32:43;;;;;;;2.90;1.70;;;22.50;41.80;;;;;;5013212;28;20429;-54
2021/05/13 08:35:10;;;;;;;2.05;1.85;;;22.50;41.80;;;;;;5012447;28;20096;-53
2021/05/13 08:37:37;;;;;;;2.42;1.77;;;22.50;41.70;;;;;;5012710;28;20124;-57
2021/05/13 08:40:05;;;;;;;2.10;1.70;;;22.50;41.70;;;;;;5009390;28;20030;-55
2021/05/13 08:42:30;;;;;;;2.55;1.80;;;22.50;41.60;;;;;;4994894;28;20030;-54
2021/05/13 08:44:57;;;;;;;2.10;1.88;;;22.50;41.60;;;;;;5011459;28;20036;-55
2021/05/13 08:47:23;;;;;;;2.33;1.60;;;22.50;41.60;;;;;;5011837;28;20034;-56
2021/05/13 08:49:49;;;;;;;3.33;1.90;;;22.50;41.60;;;;;;5012893;28;20042;-53
2021/05/13 08:52:19;;;;;;;1.65;1.52;;;22.50;41.60;;;;;;5012826;28;20041;-57
2021/05/13 08:54:55;;;;;;;2.55;1.80;;;22.50;41.50;;;;;;5012409;28;20426;-52
2021/05/13 08:57:21;;;;;;;1.63;1.42;;;22.50;41.40;;;;;;5012293;28;20042;-56
2021/05/13 08:59:48;;;;;;;2.47;1.63;;;22.50;41.40;;;;;;5012133;28;20376;-53
2021/05/13 09:02:15;;;;;;;2.53;1.80;;;22.50;41.30;;;;;;5011513;28;20168;-58
2021/05/13 09:04:47;;;;;;;1.90;1.42;;;22.50;41.30;;;;;;5010436;28;20044;-51
2021/05/13 09:07:15;;;;;;;2.10;1.63;;;22.60;41.20;;;;;;5009889;28;20465;-52
2021/05/13 09:10:00;;;;;;;1.98;1.50;;;22.60;41.10;;;;;;5011806;28;20030;-58
2021/05/13 09:12:31;;;;;;;2.17;1.63;;;22.60;41.10;;;;;;5013062;28;20037;-53
2021/05/13 09:15:09;;;;;;;1.70;1.60;;;22.60;41.10;;;;;;5012003;28;20058;-54
2021/05/13 09:17:36;;;;;;;2.33;1.50;;;22.60;41.00;;;;;;5011922;28;20361;-54
2021/05/13 09:20:05;;;;;;;2.45;1.50;;;22.60;41.00;;;;;;5010488;28;20421;-57
2021/05/13 09:22:32;;;;;;;2.75;2.25;;;22.60;41.00;;;;;;5011996;28;20108;-55
2021/05/13 09:25:07;;;;;;;3.05;1.80;;;22.60;40.90;;;;;;5011206;28;20210;-55
2021/05/13 09:27:53;;;;;;;1.98;1.77;;;22.70;41.00;;;;;;5011980;28;20095;-57
2021/05/13 09:30:25;;;;;;;2.85;2.00;;;22.70;40.90;;;;;;5010631;28;20442;-60
2021/05/13 09:32:58;;;;;;;2.85;1.90;;;22.70;41.00;;;;;;5012383;28;20045;-53
2021/05/13 09:35:34;;;;;;;2.00;1.73;;;22.70;40.90;;;;;;5010958;28;20437;-55
2021/05/13 09:38:03;;;;;;;2.20;1.70;;;22.70;40.90;;;;;;5007827;28;20052;-57
2021/05/13 09:40:52;;;;;;;2.00;1.75;;;22.80;40.90;;;;;;5010617;28;20026;-53
2021/05/13 09:43:22;;;;;;;2.42;1.60;;;22.80;40.80;;;;;;5010833;28;20025;-57
2021/05/13 09:45:52;;;;;;;1.70;1.55;;;22.80;40.80;;;;;;5011421;28;20029;-52
2021/05/13 09:48:39;;;;;;;1.70;1.58;;;22.80;40.70;;;;;;5011646;28;20069;-49
2021/05/13 09:51:14;;;;;;;2.33;1.35;;;22.80;40.60;;;;;;5006815;28;20412;-53
2021/05/13 09:53:41;;;;;;;3.42;1.77;;;22.90;40.60;;;;;;5009314;28;20061;-60
2021/05/13 09:56:23;;;;;;;2.25;1.80;;;22.90;40.60;;;;;;5012030;28;20449;-59
2021/05/13 09:58:49;;;;;;;3.50;2.08;;;22.90;40.40;;;;;;5011588;28;20053;-55
2021/05/13 10:01:15;;;;;;;2.08;1.55;;;22.90;40.30;;;;;;5010831;28;20049;-55
2021/05/13 10:03:43;;;;;;;1.90;1.33;;;22.90;40.30;;;;;;5009346;28;20034;-55
2021/05/13 10:06:10;;;;;;;2.35;1.63;;;22.90;40.30;;;;;;5010467;28;20063;-59
2021/05/13 10:08:41;;;;;;;1.95;1.50;;;22.90;40.30;;;;;;5010024;28;20068;-58
2021/05/13 10:11:08;;;;;;;1.50;1.30;;;23.00;40.30;;;;;;5005561;28;21762;-58
2021/05/13 10:13:35;;;;;;;2.85;1.50;;;23.00;40.20;;;;;;5005178;28;20034;-58
2021/05/13 10:16:03;;;;;;;1.95;1.40;;;23.00;40.10;;;;;;5012466;28;20138;-57
2021/05/13 10:18:43;;;;;;;1.30;1.17;;;23.00;40.00;;;;;;5012545;28;20031;-57
2021/05/13 10:21:16;;;;;;;1.90;1.27;;;23.00;39.70;;;;;;5013826;28;20037;-62
2021/05/13 10:23:42;;;;;;;2.70;1.30;;;23.00;39.50;;;;;;5009393;28;20052;-56
2021/05/13 10:26:41;;;;;;;1.08;0.95;;;23.00;39.50;;;;;;5013605;28;20844;-57
2021/05/13 10:29:19;;;;;;;1.65;1.00;;;23.00;39.10;;;;;;5014745;28;20093;-58
2021/05/13 10:31:46;;;;;;;2.95;1.15;;;23.10;38.90;;;;;;5014069;28;20121;-60
2021/05/13 10:34:12;;;;;;;1.85;0.95;;;23.00;38.70;;;;;;5014372;28;20045;-63
2021/05/13 10:36:38;;;;;;;1.63;1.08;;;23.00;38.50;;;;;;5015324;28;20041;-58
2021/05/13 10:39:10;;;;;;;1.48;0.70;;;23.10;38.30;;;;;;5015263;28;20037;-56
2021/05/13 10:41:44;;;;;;;1.27;0.70;;;23.10;38.10;;;;;;5015033;28;20048;-60
2021/05/13 10:44:09;;;;;;;1.40;0.80;;;23.10;37.90;;;;;;5013026;28;20112;-56
2021/05/13 10:46:51;;;;;;;1.67;0.77;;;23.10;37.70;;;;;;5012942;28;20116;-62
2021/05/13 10:49:23;;;;;;;2.17;1.02;;;23.10;37.50;;;;;;5013357;28;20034;-54
2021/05/13 10:51:55;;;;;;;1.23;0.70;;;23.10;37.30;;;;;;5013763;28;20053;-62
2021/05/13 10:54:29;;;;;;;1.45;0.60;;;23.10;37.10;;;;;;5013220;28;20033;-59
2021/05/13 10:57:19;;;;;;;1.42;0.90;;;23.20;36.90;;;;;;5015154;28;20058;-57
2021/05/13 11:00:05;;;;;;;1.10;0.63;;;23.20;36.80;;;;;;5014289;28;20029;-56
2021/05/13 11:02:49;;;;;;;2.28;1.05;;;23.20;36.60;;;;;;5012511;28;20025;-50
2021/05/13 11:05:27;;;;;;;2.75;0.93;;;23.20;36.50;;;;;;5013192;28;20049;-54
2021/05/13 11:07:53;;;;;;;0.93;0.77;;;23.20;36.40;;;;;;5013841;28;20048;-58
2021/05/13 11:10:19;;;;;;;1.60;0.80;;;23.20;36.40;;;;;;5013556;28;20052;-56
2021/05/13 11:12:45;;;;;;;1.13;0.70;;;23.20;36.30;;;;;;5007777;28;21333;-59
2021/05/13 11:15:29;;;;;;;1.13;0.70;;;23.20;36.20;;;;;;5011691;28;20034;-60
2021/05/13 11:17:59;;;;;;;2.05;1.13;;;23.20;36.10;;;;;;5012840;28;20052;-60
2021/05/13 11:20:38;;;;;;;2.00;0.90;;;23.20;36.10;;;;;;5013039;28;20049;-62
2021/05/13 11:23:10;;;;;;;1.30;0.70;;;23.30;36.10;;;;;;5011745;28;20041;-64
2021/05/13 11:25:53;;;;;;;0.90;0.63;;;23.30;36.10;;;;;;5013580;28;20060;-60
2021/05/13 11:28:24;;;;;;;1.30;0.88;;;23.30;36.00;;;;;;5012464;28;20037;-59
2021/05/13 11:30:55;;;;;;;1.10;0.80;;;23.30;35.90;;;;;;5011307;28;20113;-57
2021/05/13 11:33:22;;;;;;;1.77;0.70;;;23.30;35.90;;;;;;5013644;28;20065;-59
2021/05/13 11:35:50;;;;;;;1.27;1.00;;;23.30;35.90;;;;;;5013629;28;20033;-59
2021/05/13 11:38:23;;;;;;;1.23;0.80;;;23.30;35.90;;;;;;5012252;28;20112;-54
2021/05/13 11:40:53;;;;;;;1.40;0.73;;;23.40;35.90;;;;;;5013098;28;20083;-59
2021/05/13 11:43:24;;;;;;;1.25;0.80;;;23.40;35.90;;;;;;5008925;28;20038;-61
2021/05/13 11:45:54;;;;;;;1.73;0.63;;;23.40;35.90;;;;;;5010841;28;20034;-56
2021/05/13 11:48:30;;;;;;;1.45;0.70;;;23.40;35.90;;;;;;5011187;28;20032;-58
2021/05/13 11:50:58;;;;;;;1.42;0.60;;;23.40;35.80;;;;;;5013463;28;20406;-56
2021/05/13 11:53:25;;;;;;;0.75;0.60;;;23.40;35.90;;;;;;5008402;28;20330;-58
2021/05/13 11:55:51;;;;;;;1.92;0.88;;;23.40;35.80;;;;;;5010190;28;20018;-49
2021/05/13 11:58:49;;;;;;;1.35;0.80;;;23.40;35.80;;;;;;5009133;28;20365;-55
2021/05/13 12:01:31;;;;;;;1.15;0.65;;;23.50;35.80;;;;;;5013297;28;20062;-56
2021/05/13 12:04:01;;;;;;;1.92;0.75;;;23.50;35.90;;;;;;5016704;28;20064;-63
2021/05/13 12:06:28;;;;;;;1.55;0.80;;;23.50;36.00;;;;;;5013409;28;20022;-56
2021/05/13 12:08:54;;;;;;;1.55;0.73;;;23.50;36.00;;;;;;5010535;28;20029;-57
2021/05/13 12:11:21;;;;;;;1.17;0.70;;;23.50;36.10;;;;;;5011895;28;20121;-63
2021/05/13 12:13:49;;;;;;;1.55;0.75;;;23.50;36.10;;;;;;5010031;28;20030;-52
2021/05/13 12:16:16;;;;;;;1.55;0.57;;;23.50;36.10;;;;;;5012006;28;20038;-59
2021/05/13 12:18:43;;;;;;;1.38;0.80;;;23.60;36.20;;;;;;5012037;28;20029;-60
2021/05/13 12:21:12;;;;;;;0.73;0.60;;;23.60;36.30;;;;;;5011760;28;20032;-56
2021/05/13 12:23:40;;;;;;;0.85;0.70;;;23.60;36.30;;;;;;5013429;28;20109;-57
2021/05/13 12:26:07;;;;;;;0.98;0.80;;;23.70;36.40;;;;;;5012138;28;20477;-59
2021/05/13 12:28:34;;;;;;;0.80;0.60;;;23.70;36.40;;;;;;5012501;28;20100;-55
2021/05/13 12:31:00;;;;;;;1.08;0.60;;;23.70;36.40;;;;;;5009692;28;20409;-59
2021/05/13 12:33:28;;;;;;;0.60;0.50;;;23.80;36.50;;;;;;5011553;28;20021;-58
2021/05/13 12:35:55;;;;;;;1.10;0.57;;;23.80;36.40;;;;;;5013278;28;20066;-54
2021/05/13 12:38:23;;;;;;;0.82;0.50;;;23.90;36.40;;;;;;5010444;28;20046;-56
2021/05/13 12:41:05;;;;;;;1.15;0.73;;;23.90;36.40;;;;;;5011279;28;20056;-57
2021/05/13 12:43:31;;;;;;;0.70;0.60;;;24.00;36.40;;;;;;5013136;28;20073;-60
2021/05/13 12:45:58;;;;;;;1.30;0.60;;;24.00;36.30;;;;;;5013234;28;20025;-58
2021/05/13 12:48:28;;;;;;;2.10;0.57;;;24.10;36.30;;;;;;5012163;28;20452;-62
2021/05/13 12:50:56;;;;;;;1.05;0.38;;;24.10;36.20;;;;;;5013576;28;20026;-62
2021/05/13 12:53:23;;;;;;;1.45;0.57;;;24.10;36.10;;;;;;5013600;28;20107;-56
2021/05/13 12:55:50;;;;;;;1.15;0.60;;;24.20;36.20;;;;;;5013016;28;20049;-58